createdAt,value
2022-10-17T00:00:13.418Z,1000.97
2022-10-17T00:01:13.543Z,1000.95
2022-10-17T00:02:13.497Z,1000.97
2022-10-17T00:03:13.577Z,1000.93
2022-10-17T00:04:13.650Z,1000.94
2022-10-17T00:05:13.556Z,1000.92
2022-10-17T00:06:13.601Z,1000.93
2022-10-17T00:07:13.523Z,1000.94
2022-10-17T00:08:18.696Z,1000.90
2022-10-17T00:09:13.619Z,1000.94
2022-10-17T00:10:13.694Z,1000.91
2022-10-17T00:11:13.607Z,1000.91
2022-10-17T00:12:13.765Z,1000.90
2022-10-17T00:13:14.150Z,1000.89
2022-10-17T00:14:13.031Z,1000.88
2022-10-17T00:15:13.076Z,1000.90
2022-10-17T00:16:13.077Z,1000.89
2022-10-17T00:17:13.004Z,1000.87
2022-10-17T00:18:12.912Z,1000.85
2022-10-17T00:19:13.095Z,1000.88
2022-10-17T00:20:13.258Z,1000.86
2022-10-17T00:21:13.249Z,1000.89
2022-10-17T00:22:13.442Z,1000.83
2022-10-17T00:23:13.331Z,1000.82
2022-10-17T00:24:13.342Z,1000.85
2022-10-17T00:25:13.255Z,1000.86
2022-10-17T00:26:13.233Z,1000.89
2022-10-17T00:27:13.527Z,1000.87
2022-10-17T00:28:13.846Z,1000.89
2022-10-17T00:29:14.208Z,1000.92
2022-10-17T00:30:13.221Z,1000.94
2022-10-17T00:31:13.199Z,1000.92
2022-10-17T00:32:13.057Z,1000.89
2022-10-17T00:33:13.200Z,1000.87
2022-10-17T00:34:13.305Z,1000.91
2022-10-17T00:35:13.201Z,1000.89
2022-10-17T00:36:13.044Z,1000.89
2022-10-17T00:37:12.935Z,1000.85
2022-10-17T00:38:13.082Z,1000.88
2022-10-17T00:39:13.226Z,1000.88
2022-10-17T00:40:13.026Z,1000.87
2022-10-17T00:41:12.985Z,1000.83
2022-10-17T00:42:12.837Z,1000.84
2022-10-17T00:43:13.867Z,1000.84
2022-10-17T00:44:14.078Z,1000.84
2022-10-17T00:45:13.052Z,1000.83
2022-10-17T00:46:12.932Z,1000.84
2022-10-17T00:47:12.980Z,1000.81
2022-10-17T00:48:13.114Z,1000.80
2022-10-17T00:49:13.037Z,1000.82
2022-10-17T00:50:12.954Z,1000.85
2022-10-17T00:51:12.892Z,1000.83
2022-10-17T00:52:13.903Z,1000.81
2022-10-17T00:53:12.793Z,1000.80
2022-10-17T00:54:13.851Z,1000.80
2022-10-17T00:55:13.765Z,1000.77
2022-10-17T00:56:13.613Z,1000.78
2022-10-17T00:57:13.507Z,1000.77
2022-10-17T00:58:18.399Z,1000.77
2022-10-17T00:59:13.754Z,1000.78
2022-10-17T01:00:13.904Z,1000.77
2022-10-17T01:01:13.270Z,1000.77
2022-10-17T01:02:13.462Z,1000.79
2022-10-17T01:03:13.452Z,1000.75
2022-10-17T01:04:13.636Z,1000.73
2022-10-17T01:05:13.565Z,1000.73
2022-10-17T01:06:13.623Z,1000.75
2022-10-17T01:07:13.752Z,1000.77
2022-10-17T01:08:22.934Z,1000.75
2022-10-17T01:09:13.033Z,1000.72
2022-10-17T01:10:13.197Z,1000.73
2022-10-17T01:11:13.246Z,1000.67
2022-10-17T01:12:13.311Z,1000.68
2022-10-17T01:13:13.187Z,1000.72
2022-10-17T01:14:13.367Z,1000.69
2022-10-17T01:15:13.596Z,1000.70
2022-10-17T01:16:13.569Z,1000.67
2022-10-17T01:17:13.839Z,1000.67
2022-10-17T01:18:14.265Z,1000.67
2022-10-17T01:19:13.417Z,1000.70
2022-10-17T01:20:13.712Z,1000.67
2022-10-17T01:21:13.839Z,1000.68
2022-10-17T01:22:13.837Z,1000.68
2022-10-17T01:23:13.933Z,1000.70
2022-10-17T01:24:12.978Z,1000.72
2022-10-17T01:25:13.107Z,1000.72
2022-10-17T01:26:12.962Z,1000.71
2022-10-17T01:27:12.947Z,1000.75
2022-10-17T01:28:17.866Z,1000.76
2022-10-17T01:29:13.844Z,1000.74
2022-10-17T01:30:12.966Z,1000.79
2022-10-17T01:31:13.022Z,1000.77
2022-10-17T01:32:16.201Z,1000.81
2022-10-17T01:33:13.126Z,1000.81
2022-10-17T01:34:13.081Z,1000.84
2022-10-17T01:35:13.018Z,1000.86
2022-10-17T01:36:13.186Z,1000.83
2022-10-17T01:37:13.178Z,1000.79
2022-10-17T01:38:13.446Z,1000.72
2022-10-17T01:39:13.373Z,1000.70
2022-10-17T01:40:13.363Z,1000.69
2022-10-17T01:41:13.557Z,1000.72
2022-10-17T01:42:13.559Z,1000.75
2022-10-17T01:43:13.465Z,1000.73
2022-10-17T01:44:13.368Z,1000.74
2022-10-17T01:45:18.370Z,1000.76
2022-10-17T01:46:13.476Z,1000.73
2022-10-17T01:47:13.526Z,1000.73
2022-10-17T01:48:13.642Z,1000.75
2022-10-17T01:49:13.592Z,1000.74
2022-10-17T01:50:13.504Z,1000.67
2022-10-17T01:51:13.489Z,1000.63
2022-10-17T01:52:13.646Z,1000.63
2022-10-17T01:53:13.918Z,1000.54
2022-10-17T01:54:12.891Z,1000.56
2022-10-17T01:55:12.837Z,1000.53
2022-10-17T01:56:13.718Z,1000.55
2022-10-17T01:57:13.769Z,1000.53
2022-10-17T01:58:13.702Z,1000.51
2022-10-17T01:59:13.964Z,1000.54
2022-10-17T02:00:13.131Z,1000.54
2022-10-17T02:01:13.507Z,1000.53
2022-10-17T02:02:13.601Z,1000.51
2022-10-17T02:03:13.682Z,1000.55
2022-10-17T02:04:13.774Z,1000.59
2022-10-17T02:05:13.968Z,1000.54
2022-10-17T02:06:12.930Z,1000.58
2022-10-17T02:07:12.869Z,1000.56
2022-10-17T02:08:13.814Z,1000.55
2022-10-17T02:09:13.750Z,1000.54
2022-10-17T02:10:13.637Z,1000.54
2022-10-17T02:11:13.515Z,1000.53
2022-10-17T02:12:13.701Z,1000.57
2022-10-17T02:13:13.616Z,1000.55
2022-10-17T02:14:13.820Z,1000.58
2022-10-17T02:15:13.773Z,1000.56
2022-10-17T02:16:13.587Z,1000.58
2022-10-17T02:17:13.440Z,1000.53
2022-10-17T02:18:13.744Z,1000.54
2022-10-17T02:19:13.891Z,1000.45
2022-10-17T02:20:12.868Z,1000.51
2022-10-17T02:21:13.736Z,1000.48
2022-10-17T02:22:13.678Z,1000.50
2022-10-17T02:23:13.875Z,1000.47
2022-10-17T02:24:17.821Z,1000.46
2022-10-17T02:25:18.706Z,1000.43
2022-10-17T02:26:13.609Z,1000.40
2022-10-17T02:27:13.459Z,1000.37
2022-10-17T02:28:13.497Z,1000.44
2022-10-17T02:29:13.576Z,1000.49
2022-10-17T02:30:13.665Z,1000.47
2022-10-17T02:31:13.769Z,1000.50
2022-10-17T02:32:13.704Z,1000.49
2022-10-17T02:33:13.643Z,1000.50
2022-10-17T02:34:13.487Z,1000.45
2022-10-17T02:35:13.548Z,1000.44
2022-10-17T02:36:13.470Z,1000.46
2022-10-17T02:37:13.409Z,1000.45
2022-10-17T02:38:13.553Z,1000.50
2022-10-17T02:39:13.651Z,1000.38
2022-10-17T02:40:13.701Z,1000.42
2022-10-17T02:41:13.525Z,1000.45
2022-10-17T02:42:13.436Z,1000.43
2022-10-17T02:43:13.674Z,1000.38
2022-10-17T02:44:13.624Z,1000.39
2022-10-17T02:45:13.670Z,1000.40
2022-10-17T02:46:13.617Z,1000.41
2022-10-17T02:47:13.895Z,1000.41
2022-10-17T02:48:13.290Z,1000.41
2022-10-17T02:49:13.252Z,1000.40
2022-10-17T02:50:13.341Z,1000.39
2022-10-17T02:51:13.402Z,1000.39
2022-10-17T02:52:13.468Z,1000.40
2022-10-17T02:53:13.784Z,1000.36
2022-10-17T02:54:13.954Z,1000.39
2022-10-17T02:55:13.938Z,1000.37
2022-10-17T02:56:12.897Z,1000.42
2022-10-17T02:57:14.150Z,1000.35
2022-10-17T02:58:14.309Z,1000.37
2022-10-17T02:59:13.454Z,1000.39
2022-10-17T03:00:13.283Z,1000.41
2022-10-17T03:01:13.235Z,1000.38
2022-10-17T03:02:13.365Z,1000.36
2022-10-17T03:03:13.583Z,1000.37
2022-10-17T03:04:13.715Z,1000.36
2022-10-17T03:05:13.818Z,1000.39
2022-10-17T03:06:13.744Z,1000.42
2022-10-17T03:07:13.683Z,1000.45
2022-10-17T03:08:13.567Z,1000.44
2022-10-17T03:09:13.703Z,1000.45
2022-10-17T03:10:14.027Z,1000.47
2022-10-17T03:11:12.905Z,1000.45
2022-10-17T03:12:12.767Z,1000.47
2022-10-17T03:13:13.811Z,1000.45
2022-10-17T03:14:14.018Z,1000.42
2022-10-17T03:15:13.217Z,1000.45
2022-10-17T03:16:13.484Z,1000.44
2022-10-17T03:17:13.434Z,1000.43
2022-10-17T03:18:13.721Z,1000.39
2022-10-17T03:19:13.913Z,1000.40
2022-10-17T03:20:12.873Z,1000.48
2022-10-17T03:21:14.092Z,1000.51
2022-10-17T03:22:12.919Z,1000.50
2022-10-17T03:23:12.922Z,1000.53
2022-10-17T03:24:12.899Z,1000.47
2022-10-17T03:25:12.879Z,1000.45
2022-10-17T03:26:13.103Z,1000.48
2022-10-17T03:27:13.277Z,1000.41
2022-10-17T03:28:13.307Z,1000.44
2022-10-17T03:29:13.769Z,1000.42
2022-10-17T03:30:13.727Z,1000.43
2022-10-17T03:31:13.959Z,1000.38
2022-10-17T03:32:13.229Z,1000.42
2022-10-17T03:33:13.410Z,1000.49
2022-10-17T03:34:13.258Z,1000.51
2022-10-17T03:35:15.014Z,1000.52
2022-10-17T03:36:13.256Z,1000.48
2022-10-17T03:37:13.174Z,1000.50
2022-10-17T03:38:12.967Z,1000.52
2022-10-17T03:39:13.086Z,1000.51
2022-10-17T03:40:13.235Z,1000.54
2022-10-17T03:41:13.562Z,1000.58
2022-10-17T03:42:13.816Z,1000.59
2022-10-17T03:43:13.783Z,1000.64
2022-10-17T03:44:14.031Z,1000.60
2022-10-17T03:45:13.051Z,1000.57
2022-10-17T03:46:13.036Z,1000.63
2022-10-17T03:47:14.266Z,1000.64
2022-10-17T03:48:13.752Z,1000.57
2022-10-17T03:49:13.690Z,1000.60
2022-10-17T03:50:13.622Z,1000.54
2022-10-17T03:51:13.739Z,1000.57
2022-10-17T03:52:13.987Z,1000.58
2022-10-17T03:53:13.058Z,1000.61
2022-10-17T03:54:13.266Z,1000.61
2022-10-17T03:55:13.349Z,1000.61
2022-10-17T03:56:13.708Z,1000.67
2022-10-17T03:57:14.049Z,1000.65
2022-10-17T03:58:13.250Z,1000.66
2022-10-17T03:59:13.145Z,1000.66
2022-10-17T04:00:13.126Z,1000.68
2022-10-17T04:01:13.168Z,1000.69
2022-10-17T04:02:13.188Z,1000.64
2022-10-17T04:03:17.167Z,1000.64
2022-10-17T04:04:13.439Z,1000.66
2022-10-17T04:05:13.378Z,1000.65
2022-10-17T04:06:13.389Z,1000.62
2022-10-17T04:07:13.408Z,1000.64
2022-10-17T04:08:13.449Z,1000.64
2022-10-17T04:09:13.347Z,1000.64
2022-10-17T04:10:13.217Z,1000.64
2022-10-17T04:11:13.255Z,1000.63
2022-10-17T04:12:13.305Z,1000.66
2022-10-17T04:13:13.128Z,1000.62
2022-10-17T04:14:12.987Z,1000.64
2022-10-17T04:15:12.863Z,1000.61
2022-10-17T04:16:13.671Z,1000.65
2022-10-17T04:17:13.617Z,1000.68
2022-10-17T04:18:13.918Z,1000.70
2022-10-17T04:19:13.090Z,1000.65
2022-10-17T04:20:13.171Z,1000.72
2022-10-17T04:21:13.219Z,1000.73
2022-10-17T04:22:13.631Z,1000.75
2022-10-17T04:23:13.641Z,1000.73
2022-10-17T04:24:13.897Z,1000.75
2022-10-17T04:25:13.166Z,1000.72
2022-10-17T04:26:13.257Z,1000.76
2022-10-17T04:27:13.589Z,1000.73
2022-10-17T04:28:13.787Z,1000.72
2022-10-17T04:29:13.788Z,1000.70
2022-10-17T04:30:14.040Z,1000.67
2022-10-17T04:31:12.892Z,1000.69
2022-10-17T04:32:14.815Z,1000.70
2022-10-17T04:33:13.944Z,1000.68
2022-10-17T04:34:12.885Z,1000.68
2022-10-17T04:35:13.779Z,1000.68
2022-10-17T04:36:14.051Z,1000.71
2022-10-17T04:37:13.003Z,1000.70
2022-10-17T04:38:13.429Z,1000.66
2022-10-17T04:40:15.652Z,1000.68
2022-10-17T04:41:13.658Z,1000.69
2022-10-17T04:42:13.794Z,1000.67
2022-10-17T04:43:14.069Z,1000.69
2022-10-17T04:44:13.062Z,1000.67
2022-10-17T04:45:12.965Z,1000.70
2022-10-17T04:46:12.988Z,1000.71
2022-10-17T04:47:12.865Z,1000.73
2022-10-17T04:48:14.102Z,1000.71
2022-10-17T04:49:13.095Z,1000.73
2022-10-17T04:50:13.191Z,1000.74
2022-10-17T04:51:13.407Z,1000.75
2022-10-17T04:52:13.650Z,1000.75
2022-10-17T04:53:13.781Z,1000.81
2022-10-17T04:54:14.084Z,1000.79
2022-10-17T04:55:13.166Z,1000.84
2022-10-17T04:56:13.185Z,1000.86
2022-10-17T04:57:13.291Z,1000.85
2022-10-17T04:58:13.428Z,1000.88
2022-10-17T04:59:13.419Z,1000.84
2022-10-17T05:00:13.414Z,1000.84
2022-10-17T05:01:13.423Z,1000.87
2022-10-17T05:02:13.409Z,1000.86
2022-10-17T05:03:13.787Z,1000.85
2022-10-17T05:04:13.933Z,1000.84
2022-10-17T05:05:13.289Z,1000.86
2022-10-17T05:06:13.395Z,1000.87
2022-10-17T05:07:13.515Z,1000.86
2022-10-17T05:08:13.697Z,1000.83
2022-10-17T05:09:13.942Z,1000.84
2022-10-17T05:10:12.877Z,1000.86
2022-10-17T05:11:13.980Z,1000.88
2022-10-17T05:12:12.968Z,1000.89
2022-10-17T05:13:13.240Z,1000.93
2022-10-17T05:14:13.822Z,1000.92
2022-10-17T05:15:13.729Z,1000.97
2022-10-17T05:16:13.697Z,1000.97
2022-10-17T05:17:13.687Z,1000.96
2022-10-17T05:18:13.742Z,1000.97
2022-10-17T05:19:14.021Z,1000.89
2022-10-17T05:20:12.866Z,1000.97
2022-10-17T05:21:13.901Z,1000.93
2022-10-17T05:22:12.915Z,1000.98
2022-10-17T05:23:12.812Z,1000.97
2022-10-17T05:24:14.047Z,1001.01
2022-10-17T05:25:13.039Z,1001.00
2022-10-17T05:26:13.827Z,1001.06
2022-10-17T05:27:14.300Z,1001.04
2022-10-17T05:28:13.503Z,1001.10
2022-10-17T05:29:13.372Z,1001.06
2022-10-17T05:30:13.526Z,1001.06
2022-10-17T05:31:13.774Z,1001.06
2022-10-17T05:32:13.844Z,1001.06
2022-10-17T05:33:13.931Z,1001.05
2022-10-17T05:34:14.059Z,1001.05
2022-10-17T05:35:13.413Z,1001.10
2022-10-17T05:36:13.258Z,1001.06
2022-10-17T05:37:13.100Z,1001.08
2022-10-17T05:38:13.219Z,1001.09
2022-10-17T05:39:13.423Z,1001.06
2022-10-17T05:40:13.412Z,1001.08
2022-10-17T05:41:13.333Z,1001.06
2022-10-17T05:42:13.402Z,1001.02
2022-10-17T05:43:13.347Z,1001.01
2022-10-17T05:44:13.455Z,1001.03
2022-10-17T05:45:13.791Z,1001.09
2022-10-17T05:46:13.855Z,1001.09
2022-10-17T05:47:13.838Z,1001.12
2022-10-17T05:48:13.712Z,1001.07
2022-10-17T05:49:19.704Z,1001.11
2022-10-17T05:50:12.990Z,1001.11
2022-10-17T05:51:13.002Z,1001.14
2022-10-17T05:52:13.271Z,1001.14
2022-10-17T05:53:13.394Z,1001.13
2022-10-17T05:54:13.317Z,1001.14
2022-10-17T05:55:13.290Z,1001.14
2022-10-17T05:56:13.310Z,1001.15
2022-10-17T05:57:13.173Z,1001.09
2022-10-17T05:58:21.805Z,1001.08
2022-10-17T05:59:13.759Z,1001.18
2022-10-17T06:00:13.655Z,1001.21
2022-10-17T06:01:13.520Z,1001.17
2022-10-17T06:02:13.857Z,1001.24
2022-10-17T06:03:12.890Z,1001.25
2022-10-17T06:04:13.057Z,1001.24
2022-10-17T06:05:12.945Z,1001.29
2022-10-17T06:06:13.766Z,1001.30
2022-10-17T06:07:14.283Z,1001.30
2022-10-17T06:08:13.517Z,1001.34
2022-10-17T06:09:13.772Z,1001.31
2022-10-17T06:10:13.855Z,1001.34
2022-10-17T06:11:13.929Z,1001.34
2022-10-17T06:12:12.978Z,1001.33
2022-10-17T06:13:12.957Z,1001.32
2022-10-17T06:14:13.192Z,1001.32
2022-10-17T06:15:13.119Z,1001.26
2022-10-17T06:16:13.243Z,1001.29
2022-10-17T06:17:15.953Z,1001.31
2022-10-17T06:18:13.260Z,1001.35
2022-10-17T06:19:13.147Z,1001.34
2022-10-17T06:20:13.095Z,1001.25
2022-10-17T06:21:13.007Z,1001.38
2022-10-17T06:22:55.593Z,1001.37
2022-10-17T06:23:18.677Z,1001.35
2022-10-17T06:24:18.651Z,1001.35
2022-10-17T06:25:14.089Z,1001.40
2022-10-17T06:26:13.118Z,1001.40
2022-10-17T06:27:13.095Z,1001.43
2022-10-17T06:28:18.316Z,1001.38
2022-10-17T06:29:13.376Z,1001.40
2022-10-17T06:30:13.692Z,1001.43
2022-10-17T06:31:13.954Z,1001.40
2022-10-17T06:32:15.089Z,1001.45
2022-10-17T06:33:13.630Z,1001.47
2022-10-17T06:34:13.716Z,1001.49
2022-10-17T06:35:14.261Z,1001.52
2022-10-17T06:36:13.610Z,1001.52
2022-10-17T06:37:13.633Z,1001.57
2022-10-17T06:38:13.900Z,1001.60
2022-10-17T06:39:12.729Z,1001.59
2022-10-17T06:40:13.709Z,1001.64
2022-10-17T06:41:18.640Z,1001.62
2022-10-17T06:42:13.594Z,1001.64
2022-10-17T06:43:13.627Z,1001.74
2022-10-17T06:44:13.530Z,1001.75
2022-10-17T06:45:13.526Z,1001.77
2022-10-17T06:46:13.806Z,1001.77
2022-10-17T06:47:16.525Z,1001.80
2022-10-17T06:48:13.266Z,1001.78
2022-10-17T06:49:13.414Z,1001.83
2022-10-17T06:50:13.348Z,1001.84
2022-10-17T06:51:13.400Z,1001.79
2022-10-17T06:52:18.378Z,1001.82
2022-10-17T06:53:13.573Z,1001.82
2022-10-17T06:54:13.519Z,1001.83
2022-10-17T06:55:14.914Z,1001.86
2022-10-17T06:56:13.207Z,1001.88
2022-10-17T06:57:13.146Z,1001.84
2022-10-17T06:58:13.051Z,1001.86
2022-10-17T06:59:13.246Z,1001.89
2022-10-17T07:00:13.121Z,1001.90
2022-10-17T07:01:13.130Z,1001.92
2022-10-17T07:02:13.124Z,1001.90
2022-10-17T07:03:13.461Z,1001.87
2022-10-17T07:04:13.383Z,1001.89
2022-10-17T07:05:13.502Z,1001.87
2022-10-17T07:06:13.846Z,1001.89
2022-10-17T07:07:13.961Z,1001.86
2022-10-17T07:08:12.931Z,1001.91
2022-10-17T07:09:12.892Z,1001.93
2022-10-17T07:10:13.006Z,1001.93
2022-10-17T07:11:13.008Z,1001.90
2022-10-17T07:12:13.014Z,1001.95
2022-10-17T07:13:28.018Z,1001.96
2022-10-17T07:14:12.872Z,1001.95
2022-10-17T07:16:13.695Z,1002.02
2022-10-17T07:17:13.695Z,1002.00
2022-10-17T07:18:13.971Z,1002.05
2022-10-17T07:19:13.142Z,1002.06
2022-10-17T07:20:13.376Z,1002.10
2022-10-17T07:21:13.325Z,1002.11
2022-10-17T07:22:13.450Z,1002.13
2022-10-17T07:23:13.662Z,1002.14
2022-10-17T07:24:13.515Z,1002.15
2022-10-17T07:25:13.467Z,1002.13
2022-10-17T07:26:13.433Z,1002.17
2022-10-17T07:27:13.633Z,1002.18
2022-10-17T07:28:13.521Z,1002.21
2022-10-17T07:29:13.643Z,1002.21
2022-10-17T07:30:13.681Z,1002.19
2022-10-17T07:32:26.561Z,1002.24
2022-10-17T07:33:13.579Z,1002.24
2022-10-17T07:34:13.652Z,1002.29
2022-10-17T07:35:13.742Z,1002.26
2022-10-17T07:36:13.809Z,1002.28
2022-10-17T07:38:13.458Z,1002.26
2022-10-17T07:39:13.586Z,1002.28
2022-10-17T07:40:13.532Z,1002.30
2022-10-17T07:41:17.811Z,1002.25
2022-10-17T07:42:13.178Z,1002.24
2022-10-17T07:43:13.525Z,1002.21
2022-10-17T07:44:13.492Z,1002.16
2022-10-17T07:45:13.720Z,1002.14
2022-10-17T07:46:13.681Z,1002.17
2022-10-17T07:47:19.079Z,1002.17
2022-10-17T07:48:12.961Z,1002.24
2022-10-17T07:49:12.882Z,1002.18
2022-10-17T07:50:19.018Z,1002.18
2022-10-17T07:51:13.152Z,1002.17
2022-10-17T07:52:13.352Z,1002.21
2022-10-17T07:53:13.253Z,1002.18
2022-10-17T07:54:13.129Z,1002.14
2022-10-17T07:55:12.994Z,1002.16
2022-10-17T07:56:23.055Z,1002.14
2022-10-17T07:57:18.673Z,1002.17
2022-10-17T07:58:13.462Z,1002.16
2022-10-17T07:59:32.803Z,1002.14
2022-10-17T08:00:13.675Z,1002.16
2022-10-17T08:01:23.555Z,1002.15
2022-10-17T08:02:13.396Z,1002.21
2022-10-17T08:03:13.631Z,1002.22
2022-10-17T08:04:13.947Z,1002.15
2022-10-17T08:05:12.948Z,1002.17
2022-10-17T08:06:12.779Z,1002.22
2022-10-17T08:07:42.620Z,1002.24
2022-10-17T08:08:13.860Z,1002.24
2022-10-17T08:09:14.091Z,1002.27
2022-10-17T08:10:13.188Z,1002.27
2022-10-17T08:11:13.206Z,1002.35
2022-10-17T08:12:23.191Z,1002.27
2022-10-17T08:13:22.580Z,1002.32
2022-10-17T08:14:13.516Z,1002.31
2022-10-17T08:15:31.759Z,1002.30
2022-10-17T08:16:13.465Z,1002.28
2022-10-17T08:17:13.246Z,1002.30
2022-10-17T08:18:14.408Z,1002.27
2022-10-17T08:19:13.461Z,1002.28
2022-10-17T08:20:13.577Z,1002.26
2022-10-17T08:21:13.575Z,1002.27
2022-10-17T08:22:13.671Z,1002.27
2022-10-17T08:23:13.656Z,1002.20
2022-10-17T08:24:13.677Z,1002.23
2022-10-17T08:25:15.661Z,1002.17
2022-10-17T08:26:13.732Z,1002.21
2022-10-17T08:27:13.624Z,1002.21
2022-10-17T08:28:13.693Z,1002.27
2022-10-17T08:29:13.744Z,1002.23
2022-10-17T08:30:13.954Z,1002.29
2022-10-17T08:31:12.891Z,1002.33
2022-10-17T08:32:13.808Z,1002.33
2022-10-17T08:33:14.110Z,1002.39
2022-10-17T08:34:13.008Z,1002.41
2022-10-17T08:35:13.157Z,1002.42
2022-10-17T08:36:13.007Z,1002.43
2022-10-17T08:37:13.215Z,1002.39
2022-10-17T08:38:13.532Z,1002.39
2022-10-17T08:39:13.286Z,1002.39
2022-10-17T08:40:13.228Z,1002.42
2022-10-17T08:41:13.092Z,1002.42
2022-10-17T08:42:13.142Z,1002.42
2022-10-17T08:43:13.233Z,1002.39
2022-10-17T08:44:13.487Z,1002.44
2022-10-17T08:45:13.442Z,1002.48
2022-10-17T08:46:13.417Z,1002.47
2022-10-17T08:47:13.488Z,1002.49
2022-10-17T08:48:13.765Z,1002.56
2022-10-17T08:49:13.723Z,1002.51
2022-10-17T08:50:13.628Z,1002.56
2022-10-17T08:51:13.674Z,1002.56
2022-10-17T08:52:13.861Z,1002.55
2022-10-17T08:53:14.170Z,1002.50
2022-10-17T08:54:13.175Z,1002.48
2022-10-17T08:55:13.025Z,1002.46
2022-10-17T08:56:19.482Z,1002.46
2022-10-17T08:57:13.746Z,1002.49
2022-10-17T08:58:13.731Z,1002.51
2022-10-17T08:59:13.970Z,1002.50
2022-10-17T09:00:13.194Z,1002.55
2022-10-17T09:01:13.386Z,1002.56
2022-10-17T09:02:13.599Z,1002.61
2022-10-17T09:03:14.040Z,1002.64
2022-10-17T09:04:13.314Z,1002.63
2022-10-17T09:05:13.561Z,1002.63
2022-10-17T09:06:13.374Z,1002.67
2022-10-17T09:07:13.468Z,1002.70
2022-10-17T09:08:13.410Z,1002.67
2022-10-17T09:09:13.535Z,1002.62
2022-10-17T09:10:13.701Z,1002.57
2022-10-17T09:11:14.144Z,1002.52
2022-10-17T09:12:13.218Z,1002.52
2022-10-17T09:13:13.202Z,1002.48
2022-10-17T09:14:13.245Z,1002.54
2022-10-17T09:15:14.524Z,1002.55
2022-10-17T09:16:13.600Z,1002.57
2022-10-17T09:17:13.634Z,1002.55
2022-10-17T09:18:13.571Z,1002.54
2022-10-17T09:19:13.592Z,1002.56
2022-10-17T09:20:14.083Z,1002.53
2022-10-17T09:21:12.945Z,1002.60
2022-10-17T09:22:13.366Z,1002.58
2022-10-17T09:23:13.376Z,1002.65
2022-10-17T09:24:15.826Z,1002.58
2022-10-17T09:25:13.207Z,1002.59
2022-10-17T09:26:13.143Z,1002.69
2022-10-17T09:27:13.031Z,1002.67
2022-10-17T09:28:13.318Z,1002.73
2022-10-17T09:29:13.351Z,1002.67
2022-10-17T09:30:26.967Z,1002.66
2022-10-17T09:31:13.228Z,1002.69
2022-10-17T09:32:13.471Z,1002.71
2022-10-17T09:33:28.567Z,1002.82
2022-10-17T09:34:13.726Z,1002.81
2022-10-17T09:35:13.814Z,1002.74
2022-10-17T09:36:13.824Z,1002.89
2022-10-17T09:37:13.927Z,1002.84
2022-10-17T09:38:12.909Z,1002.88
2022-10-17T09:39:12.852Z,1002.89
2022-10-17T09:40:13.730Z,1002.95
2022-10-17T09:41:39.246Z,1002.97
2022-10-17T09:42:13.494Z,1003.00
2022-10-17T09:43:13.529Z,1003.02
2022-10-17T09:44:13.700Z,1003.01
2022-10-17T09:45:13.617Z,1003.03
2022-10-17T09:46:13.978Z,1003.04
2022-10-17T09:47:12.966Z,1002.99
2022-10-17T09:48:12.878Z,1003.05
2022-10-17T09:49:16.438Z,1003.05
2022-10-17T09:50:13.424Z,1003.12
2022-10-17T09:51:21.762Z,1003.17
2022-10-17T09:52:13.265Z,1003.20
2022-10-17T09:53:13.197Z,1003.12
2022-10-17T09:54:13.114Z,1003.12
2022-10-17T09:55:13.107Z,1003.14
2022-10-17T09:56:13.374Z,1003.14
2022-10-17T09:57:13.315Z,1003.18
2022-10-17T09:58:13.310Z,1003.15
2022-10-17T09:59:13.965Z,1003.17
2022-10-17T10:01:13.092Z,1003.12
2022-10-17T10:02:13.213Z,1003.17
2022-10-17T10:03:13.430Z,1003.29
2022-10-17T10:04:13.876Z,1003.25
2022-10-17T10:05:12.843Z,1003.24
2022-10-17T10:06:13.698Z,1003.26
2022-10-17T10:07:13.853Z,1003.29
2022-10-17T10:08:15.190Z,1003.27
2022-10-17T10:09:13.311Z,1003.32
2022-10-17T10:10:13.507Z,1003.33
2022-10-17T10:11:14.100Z,1003.31
2022-10-17T10:12:13.226Z,1003.33
2022-10-17T10:13:13.214Z,1003.32
2022-10-17T10:14:13.380Z,1003.35
2022-10-17T10:15:13.579Z,1003.37
2022-10-17T10:16:13.413Z,1003.40
2022-10-17T10:17:13.379Z,1003.40
2022-10-17T10:18:13.665Z,1003.51
2022-10-17T10:19:13.855Z,1003.46
2022-10-17T10:20:13.778Z,1003.51
2022-10-17T10:21:14.089Z,1003.52
2022-10-17T10:22:13.517Z,1003.49
2022-10-17T10:23:13.308Z,1003.52
2022-10-17T10:24:13.408Z,1003.56
2022-10-17T10:25:13.832Z,1003.53
2022-10-17T10:26:14.563Z,1003.59
2022-10-17T10:27:12.931Z,1003.63
2022-10-17T10:28:12.790Z,1003.65
2022-10-17T10:29:13.687Z,1003.64
2022-10-17T10:30:13.698Z,1003.69
2022-10-17T10:31:13.707Z,1003.64
2022-10-17T10:32:13.871Z,1003.66
2022-10-17T10:33:13.672Z,1003.66
2022-10-17T10:34:13.658Z,1003.67
2022-10-17T10:35:13.616Z,1003.64
2022-10-17T10:36:14.064Z,1003.69
2022-10-17T10:37:40.017Z,1003.75
2022-10-17T10:38:13.171Z,1003.76
2022-10-17T10:39:12.990Z,1003.81
2022-10-17T10:40:12.864Z,1003.76
2022-10-17T10:41:13.786Z,1003.75
2022-10-17T10:42:13.781Z,1003.77
2022-10-17T10:43:13.715Z,1003.83
2022-10-17T10:44:13.597Z,1003.80
2022-10-17T10:45:19.132Z,1003.82
2022-10-17T10:46:13.939Z,1003.83
2022-10-17T10:47:12.954Z,1003.78
2022-10-17T10:48:12.781Z,1003.85
2022-10-17T10:49:14.364Z,1003.83
2022-10-17T10:50:13.440Z,1003.87
2022-10-17T10:51:13.730Z,1003.86
2022-10-17T10:52:13.674Z,1003.85
2022-10-17T10:53:13.837Z,1003.82
2022-10-17T10:54:13.991Z,1003.85
2022-10-17T10:55:12.934Z,1003.93
2022-10-17T10:56:12.884Z,1003.98
2022-10-17T10:57:14.211Z,1003.98
2022-10-17T10:58:13.697Z,1003.94
2022-10-17T10:59:13.958Z,1003.92
2022-10-17T11:00:13.144Z,1003.96
2022-10-17T11:01:13.564Z,1003.96
2022-10-17T11:02:13.818Z,1003.93
2022-10-17T11:03:13.741Z,1003.94
2022-10-17T11:04:13.707Z,1004.00
2022-10-17T11:05:13.591Z,1004.00
2022-10-17T11:06:13.840Z,1004.02
2022-10-17T11:07:14.379Z,1004.09
2022-10-17T11:08:13.830Z,1004.10
2022-10-17T11:09:13.801Z,1004.05
2022-10-17T11:10:13.902Z,1004.07
2022-10-17T11:11:13.277Z,1004.12
2022-10-17T11:12:13.287Z,1004.09
2022-10-17T11:13:13.220Z,1004.15
2022-10-17T11:14:13.849Z,1004.16
2022-10-17T11:15:13.472Z,1004.21
2022-10-17T11:16:13.621Z,1004.22
2022-10-17T11:17:13.714Z,1004.27
2022-10-17T11:18:13.625Z,1004.30
2022-10-17T11:19:13.637Z,1004.34
2022-10-17T11:20:13.968Z,1004.35
2022-10-17T11:21:13.400Z,1004.33
2022-10-17T11:22:13.569Z,1004.37
2022-10-17T11:23:13.891Z,1004.42
2022-10-17T11:24:13.911Z,1004.42
2022-10-17T11:25:12.980Z,1004.44
2022-10-17T11:26:13.143Z,1004.44
2022-10-17T11:27:13.041Z,1004.48
2022-10-17T11:28:13.125Z,1004.45
2022-10-17T11:29:13.353Z,1004.48
2022-10-17T11:30:13.480Z,1004.50
2022-10-17T11:31:13.343Z,1004.48
2022-10-17T11:32:13.800Z,1004.53
2022-10-17T11:33:13.818Z,1004.54
2022-10-17T11:34:13.848Z,1004.56
2022-10-17T11:35:14.062Z,1004.56
2022-10-17T11:36:13.229Z,1004.56
2022-10-17T11:37:13.179Z,1004.55
2022-10-17T11:38:13.122Z,1004.56
2022-10-17T11:39:13.049Z,1004.54
2022-10-17T11:40:12.973Z,1004.51
2022-10-17T11:41:13.020Z,1004.48
2022-10-17T11:42:13.368Z,1004.47
2022-10-17T11:43:13.462Z,1004.49
2022-10-17T11:44:13.618Z,1004.47
2022-10-17T11:45:13.588Z,1004.42
2022-10-17T11:46:13.740Z,1004.40
2022-10-17T11:47:13.635Z,1004.37
2022-10-17T11:48:13.536Z,1004.40
2022-10-17T11:49:19.006Z,1004.44
2022-10-17T11:52:18.419Z,1004.47
2022-10-17T11:53:13.276Z,1004.51
2022-10-17T11:54:13.285Z,1004.50
2022-10-17T11:55:13.163Z,1004.46
2022-10-17T11:56:13.176Z,1004.40
2022-10-17T11:57:14.796Z,1004.38
2022-10-17T11:58:13.102Z,1004.38
2022-10-17T11:59:13.070Z,1004.28
2022-10-17T12:00:13.100Z,1004.22
2022-10-17T12:01:13.280Z,1004.13
2022-10-17T12:02:13.355Z,1004.10
2022-10-17T12:03:13.188Z,1004.08
2022-10-17T12:04:13.082Z,1004.08
2022-10-17T12:05:13.174Z,1004.13
2022-10-17T12:06:13.523Z,1004.18
2022-10-17T12:07:18.593Z,1004.21
2022-10-17T12:08:13.646Z,1004.29
2022-10-17T12:09:13.683Z,1004.26
2022-10-17T12:10:13.830Z,1004.27
2022-10-17T12:11:13.964Z,1004.27
2022-10-17T12:12:13.260Z,1004.27